Time;durP1;ratioP1;P1;durP2;ratioP2;P2;SDS_P1;SDS_P2;PMS_P1;PMS_P2;Temp;Humidity;BMP_temperature;BMP_pressure;BME280_temperature;BME280_humidity;BME280_pressure;Samples;Min_cycle;Max_cycle;Signal;HPM_P1;HPM_P2
2023/06/20 00:02:21;;;;;;;18.33;14.50;;;17.80;99.90;;;;;;5104705;27;20042;-72
2023/06/20 00:04:48;;;;;;;17.15;14.02;;;17.70;99.90;;;;;;5090567;27;20053;-72
2023/06/20 00:07:14;;;;;;;17.75;13.93;;;17.70;99.90;;;;;;5103953;27;20043;-72
2023/06/20 00:09:40;;;;;;;18.65;14.15;;;17.70;99.90;;;;;;5103510;27;20394;-73
2023/06/20 00:12:06;;;;;;;19.25;14.57;;;17.70;99.90;;;;;;5089391;27;20103;-72
2023/06/20 00:14:31;;;;;;;19.02;13.65;;;17.70;99.90;;;;;;5105504;27;20533;-72
2023/06/20 00:16:59;;;;;;;18.85;14.27;;;17.60;99.90;;;;;;5104721;27;20072;-72
2023/06/20 00:19:27;;;;;;;17.58;14.15;;;17.60;99.90;;;;;;5089032;27;20049;-72
2023/06/20 00:21:53;;;;;;;18.10;14.15;;;17.60;99.90;;;;;;5088446;27;20493;-73
2023/06/20 00:24:19;;;;;;;18.08;14.68;;;17.60;99.90;;;;;;5067523;27;20058;-72
2023/06/20 00:26:45;;;;;;;18.73;14.27;;;17.60;99.90;;;;;;5124162;27;20047;-71
2023/06/20 00:29:10;;;;;;;20.35;14.10;;;17.50;99.90;;;;;;5105076;27;20111;-73
2023/06/20 00:31:36;;;;;;;17.90;14.10;;;17.60;99.90;;;;;;5106613;27;20051;-72
2023/06/20 00:34:02;;;;;;;18.23;13.52;;;17.60;99.90;;;;;;5105859;27;20062;-73
2023/06/20 00:36:28;;;;;;;17.77;13.27;;;17.50;99.90;;;;;;5102137;27;20051;-72
2023/06/20 00:38:57;;;;;;;18.27;14.13;;;17.50;99.90;;;;;;5106570;27;20367;-72
2023/06/20 00:41:23;;;;;;;17.42;13.93;;;17.50;99.90;;;;;;5091558;27;20066;-72
2023/06/20 00:43:49;;;;;;;21.13;14.30;;;17.50;99.90;;;;;;5106720;27;20051;-72
2023/06/20 00:46:22;;;;;;;17.20;13.23;;;17.50;99.90;;;;;;5103631;27;20104;-73
2023/06/20 00:48:48;;;;;;;17.13;13.52;;;17.50;99.90;;;;;;5106635;27;20043;-72
2023/06/20 00:51:19;;;;;;;17.42;13.05;;;17.40;99.90;;;;;;5087888;27;20043;-72
2023/06/20 00:53:46;;;;;;;18.10;13.20;;;17.40;99.90;;;;;;5106376;27;20043;-72
2023/06/20 00:56:12;;;;;;;16.58;12.85;;;17.40;99.90;;;;;;5106238;27;20175;-72
2023/06/20 00:58:38;;;;;;;16.63;12.70;;;17.40;99.90;;;;;;5087465;27;20038;-72
2023/06/20 01:01:05;;;;;;;19.20;12.57;;;17.40;99.90;;;;;;5103427;27;20892;-72
2023/06/20 01:03:32;;;;;;;18.67;13.27;;;17.40;99.90;;;;;;5106725;27;20043;-73
2023/06/20 01:06:10;;;;;;;16.33;12.50;;;17.40;99.90;;;;;;5103546;27;20043;-72
2023/06/20 01:08:54;;;;;;;15.35;12.85;;;17.20;99.90;;;;;;5105918;27;20039;-72
2023/06/20 01:11:40;;;;;;;15.45;13.20;;;17.40;99.90;;;;;;5104476;27;20096;-72
2023/06/20 01:14:30;;;;;;;17.42;12.65;;;17.40;99.90;;;;;;5087666;27;20501;-72
2023/06/20 01:17:09;;;;;;;15.32;11.75;;;17.40;99.90;;;;;;5105414;27;20033;-72
2023/06/20 01:19:53;;;;;;;16.55;12.75;;;17.30;99.90;;;;;;5079613;27;21854;-72
2023/06/20 01:22:37;;;;;;;17.30;12.68;;;17.30;99.90;;;;;;5102938;27;20096;-72
2023/06/20 01:25:08;;;;;;;16.50;12.45;;;17.30;99.90;;;;;;5102678;27;20065;-72
2023/06/20 01:27:43;;;;;;;19.13;12.35;;;17.30;99.90;;;;;;5094759;27;20054;-72
2023/06/20 01:30:15;;;;;;;16.70;12.00;;;17.30;99.90;;;;;;5102165;27;20445;-72
2023/06/20 01:32:46;;;;;;;15.98;11.40;;;17.30;99.90;;;;;;5104465;27;20055;-72
2023/06/20 01:35:16;;;;;;;16.00;12.52;;;17.30;99.90;;;;;;5091661;27;20095;-73
2023/06/20 01:37:45;;;;;;;16.63;12.10;;;17.30;99.90;;;;;;5107776;27;20108;-72
2023/06/20 01:40:17;;;;;;;18.40;12.88;;;17.30;99.90;;;;;;5107443;27;20035;-72
2023/06/20 01:42:44;;;;;;;14.43;12.25;;;17.30;99.90;;;;;;5107531;27;20118;-73
2023/06/20 01:45:12;;;;;;;18.73;13.25;;;17.30;99.90;;;;;;5106428;27;20055;-73
2023/06/20 01:47:40;;;;;;;17.13;11.60;;;17.30;99.90;;;;;;5090898;27;20082;-72
2023/06/20 01:53:20;;;;;;;16.73;12.60;;;17.30;99.90;;;;;;5074227;22;20063;-73
2023/06/20 01:55:48;;;;;;;16.17;12.18;;;17.20;99.90;;;;;;5097592;27;20601;-72
2023/06/20 01:58:15;;;;;;;16.88;12.05;;;17.30;99.90;;;;;;5101338;27;20524;-72
2023/06/20 02:00:42;;;;;;;19.30;12.82;;;17.30;99.90;;;;;;5067840;27;20573;-70
2023/06/20 02:03:09;;;;;;;18.73;12.80;;;17.20;99.90;;;;;;5099718;27;20379;-70
2023/06/20 02:05:36;;;;;;;15.95;12.50;;;17.20;99.90;;;;;;5079909;28;20050;-72
2023/06/20 02:08:03;;;;;;;17.40;12.70;;;17.20;99.90;;;;;;5101942;27;20054;-72
2023/06/20 02:10:30;;;;;;;17.02;13.02;;;17.20;99.90;;;;;;5097385;27;20047;-71
2023/06/20 02:12:56;;;;;;;16.95;12.88;;;17.20;99.90;;;;;;5093887;27;20054;-71
2023/06/20 02:15:25;;;;;;;18.27;13.98;;;17.20;99.90;;;;;;5096088;27;20043;-71
2023/06/20 02:17:50;;;;;;;18.50;13.82;;;17.20;99.90;;;;;;5102306;27;20544;-71
2023/06/20 02:20:16;;;;;;;15.38;12.75;;;17.10;99.90;;;;;;5079888;27;20048;-72
2023/06/20 02:22:46;;;;;;;16.73;12.85;;;17.10;99.90;;;;;;5101811;27;20046;-71
2023/06/20 02:25:17;;;;;;;16.70;12.80;;;17.10;99.90;;;;;;5096794;27;20496;-72
2023/06/20 02:27:43;;;;;;;17.58;12.95;;;17.10;99.90;;;;;;5101089;27;20047;-72
2023/06/20 02:30:10;;;;;;;17.67;13.20;;;17.10;99.90;;;;;;5098789;27;20045;-71
2023/06/20 02:32:40;;;;;;;20.25;13.70;;;17.10;99.90;;;;;;5118893;27;20055;-71
2023/06/20 02:35:08;;;;;;;15.73;12.90;;;17.00;99.90;;;;;;5099292;27;20120;-71
2023/06/20 02:37:36;;;;;;;17.15;13.30;;;17.00;99.90;;;;;;5098838;27;20051;-71
2023/06/20 02:40:04;;;;;;;19.00;13.98;;;17.00;99.90;;;;;;5098202;27;21083;-70
2023/06/20 02:42:30;;;;;;;19.65;13.90;;;17.00;99.90;;;;;;5095709;27;20058;-71
2023/06/20 02:44:56;;;;;;;20.77;14.00;;;17.00;99.90;;;;;;5092817;27;20047;-71
2023/06/20 02:47:55;;;;;;;18.77;14.00;;;17.00;99.90;;;;;;5092818;27;20051;-72
2023/06/20 02:50:41;;;;;;;17.67;13.52;;;17.00;99.90;;;;;;5093385;27;20044;-71
2023/06/20 02:53:27;;;;;;;18.67;12.95;;;17.00;99.90;;;;;;5093398;27;20049;-70
2023/06/20 02:56:00;;;;;;;18.60;13.40;;;16.90;99.90;;;;;;5092659;27;20043;-72
2023/06/20 02:58:27;;;;;;;17.85;13.27;;;17.00;99.90;;;;;;5093616;27;20054;-72
2023/06/20 03:00:58;;;;;;;17.05;12.13;;;17.00;99.90;;;;;;5093818;27;20047;-71
2023/06/20 03:03:36;;;;;;;19.48;13.77;;;16.90;99.90;;;;;;5095354;27;20086;-71
2023/06/20 03:06:02;;;;;;;17.73;13.38;;;17.00;99.90;;;;;;5093128;27;20050;-71
2023/06/20 03:08:30;;;;;;;20.10;14.00;;;16.90;99.90;;;;;;5083037;27;20078;-71
2023/06/20 03:10:57;;;;;;;17.15;14.00;;;17.00;99.90;;;;;;5078986;27;20394;-71
2023/06/20 03:13:24;;;;;;;19.80;13.88;;;17.00;99.90;;;;;;5095122;27;20482;-71
2023/06/20 03:15:50;;;;;;;19.65;13.43;;;17.00;99.90;;;;;;5089591;27;20047;-71
2023/06/20 03:18:19;;;;;;;16.35;13.10;;;17.00;99.90;;;;;;5093816;27;20543;-71
2023/06/20 03:20:48;;;;;;;18.58;13.73;;;16.90;99.90;;;;;;5095703;27;20035;-72
2023/06/20 03:23:14;;;;;;;17.10;13.32;;;17.00;99.90;;;;;;5101196;27;20563;-71
2023/06/20 03:25:40;;;;;;;20.85;14.40;;;17.00;99.90;;;;;;5061598;27;20497;-69
2023/06/20 03:28:06;;;;;;;20.95;14.23;;;17.00;99.90;;;;;;5092137;27;20573;-71
2023/06/20 03:30:32;;;;;;;18.13;13.15;;;17.00;99.90;;;;;;5074974;27;20115;-70
2023/06/20 03:32:58;;;;;;;19.52;13.77;;;17.10;99.90;;;;;;5109343;27;20126;-70
2023/06/20 03:35:24;;;;;;;19.48;13.70;;;17.10;99.90;;;;;;5091753;27;20094;-71
2023/06/20 03:37:50;;;;;;;20.58;14.10;;;17.10;99.90;;;;;;5103539;27;20048;-71
2023/06/20 03:40:15;;;;;;;20.48;14.05;;;17.10;99.90;;;;;;5085165;27;20781;-71
2023/06/20 03:42:42;;;;;;;21.15;14.40;;;17.10;99.90;;;;;;5072625;28;20063;-72
2023/06/20 03:45:08;;;;;;;18.27;13.77;;;17.20;99.90;;;;;;5075411;27;20089;-70
2023/06/20 03:47:34;;;;;;;18.25;12.70;;;17.20;99.90;;;;;;5073759;27;20047;-71
2023/06/20 03:50:00;;;;;;;19.20;13.30;;;17.20;99.90;;;;;;5071081;27;20044;-73
2023/06/20 03:52:25;;;;;;;18.05;13.68;;;17.20;99.90;;;;;;5087027;28;20185;-71
2023/06/20 03:54:51;;;;;;;18.73;13.15;;;17.30;99.90;;;;;;5069965;27;20036;-71
2023/06/20 03:57:17;;;;;;;17.33;14.00;;;17.30;99.90;;;;;;5088912;28;20051;-72
2023/06/20 03:59:43;;;;;;;17.50;13.27;;;17.30;99.90;;;;;;5058814;27;20047;-72
2023/06/20 04:02:08;;;;;;;17.08;12.95;;;17.60;99.90;;;;;;5047786;27;20086;-71
2023/06/20 04:04:34;;;;;;;17.20;12.90;;;17.40;99.90;;;;;;5073443;27;20061;-71
2023/06/20 04:07:00;;;;;;;18.08;12.15;;;17.40;99.90;;;;;;5087742;28;20170;-73
2023/06/20 04:09:31;;;;;;;16.98;12.70;;;17.40;99.90;;;;;;5088613;28;20035;-72
2023/06/20 04:11:57;;;;;;;20.48;13.60;;;17.50;99.90;;;;;;5069780;28;20120;-71
2023/06/20 04:14:23;;;;;;;16.10;12.38;;;17.50;99.90;;;;;;5087649;28;20526;-72
2023/06/20 04:16:49;;;;;;;18.33;12.45;;;17.60;99.90;;;;;;5071972;27;20176;-72
2023/06/20 04:19:16;;;;;;;16.83;11.85;;;17.60;99.90;;;;;;5060277;27;20052;-73
2023/06/20 04:21:42;;;;;;;17.88;12.60;;;17.60;99.90;;;;;;5050844;28;20050;-71
2023/06/20 04:24:08;;;;;;;13.63;11.88;;;17.70;99.90;;;;;;5067078;28;20047;-71
2023/06/20 04:26:36;;;;;;;16.27;11.75;;;17.70;99.90;;;;;;5087879;28;20096;-70
2023/06/20 04:29:01;;;;;;;14.40;10.80;;;17.80;99.90;;;;;;5046682;28;20054;-69
2023/06/20 04:31:29;;;;;;;15.68;11.23;;;17.80;99.90;;;;;;5070788;28;20051;-71
2023/06/20 04:33:56;;;;;;;14.90;11.05;;;17.80;99.90;;;;;;5091496;28;20055;-74
2023/06/20 04:36:23;;;;;;;13.55;10.23;;;17.80;99.90;;;;;;5063225;28;20406;-71
2023/06/20 04:38:49;;;;;;;14.98;9.77;;;17.90;99.90;;;;;;5061834;28;20039;-70
2023/06/20 04:41:14;;;;;;;13.43;10.02;;;17.90;99.90;;;;;;5093116;28;20050;-72
2023/06/20 04:43:44;;;;;;;13.73;9.32;;;17.90;99.90;;;;;;5080302;28;20057;-71
2023/06/20 04:46:12;;;;;;;14.30;10.13;;;18.00;99.90;;;;;;5098657;28;20051;-71
2023/06/20 04:48:38;;;;;;;11.25;9.38;;;18.00;99.90;;;;;;5069614;28;20035;-70
2023/06/20 04:51:08;;;;;;;11.45;8.90;;;18.00;99.90;;;;;;5075175;28;20050;-71
2023/06/20 04:53:39;;;;;;;11.48;9.55;;;17.80;99.90;;;;;;5089162;28;20414;-71
2023/06/20 04:56:05;;;;;;;11.07;8.82;;;18.10;99.90;;;;;;5088696;28;20084;-70
2023/06/20 04:58:31;;;;;;;11.70;8.90;;;18.10;99.90;;;;;;5079176;28;20047;-70
2023/06/20 05:00:58;;;;;;;14.18;9.30;;;18.20;99.90;;;;;;5090577;28;20076;-71
2023/06/20 05:03:24;;;;;;;11.50;8.70;;;18.20;99.90;;;;;;5088617;28;20079;-70
2023/06/20 05:05:50;;;;;;;14.07;9.68;;;18.30;99.90;;;;;;5105828;28;20203;-74
2023/06/20 05:08:16;;;;;;;11.40;8.93;;;18.30;99.90;;;;;;5078586;27;20040;-71
2023/06/20 05:10:47;;;;;;;11.98;9.30;;;18.40;99.90;;;;;;5073852;27;20058;-70
2023/06/20 05:13:13;;;;;;;11.60;9.18;;;18.40;99.90;;;;;;5076125;27;20051;-72
2023/06/20 05:15:39;;;;;;;11.30;8.85;;;18.40;99.90;;;;;;5093872;27;20066;-70
2023/06/20 05:18:05;;;;;;;11.30;8.80;;;18.50;99.90;;;;;;5072976;27;20390;-72
2023/06/20 05:20:30;;;;;;;13.15;9.05;;;18.40;99.90;;;;;;5090594;27;20042;-71
2023/06/20 05:22:59;;;;;;;11.18;8.02;;;18.50;99.90;;;;;;5087595;27;20114;-71
2023/06/20 05:25:25;;;;;;;11.80;8.93;;;18.50;99.90;;;;;;5093522;27;20062;-74
2023/06/20 05:27:51;;;;;;;14.00;9.38;;;18.50;99.90;;;;;;5056334;27;20046;-72
2023/06/20 05:30:17;;;;;;;13.57;8.68;;;18.50;99.90;;;;;;5093854;27;20126;-72
2023/06/20 05:32:42;;;;;;;12.30;8.52;;;18.60;99.90;;;;;;5073389;27;20124;-73
2023/06/20 05:35:08;;;;;;;11.52;8.73;;;18.60;99.90;;;;;;5077267;27;20043;-71
2023/06/20 05:37:34;;;;;;;10.70;8.90;;;18.60;99.90;;;;;;5094279;27;20297;-70
2023/06/20 05:40:00;;;;;;;12.20;9.20;;;18.60;99.90;;;;;;5097404;27;20370;-71
2023/06/20 05:42:26;;;;;;;11.93;9.30;;;18.60;99.90;;;;;;5097727;27;20103;-73
2023/06/20 05:44:52;;;;;;;11.00;8.88;;;18.60;99.90;;;;;;5079576;27;20075;-71
2023/06/20 05:47:17;;;;;;;11.77;8.88;;;18.70;99.90;;;;;;5097335;27;20084;-73
2023/06/20 05:49:44;;;;;;;10.90;9.02;;;18.70;99.90;;;;;;5091186;27;21758;-71
2023/06/20 05:52:11;;;;;;;11.05;8.57;;;18.80;99.90;;;;;;5092467;27;20131;-72
2023/06/20 05:54:37;;;;;;;15.25;9.77;;;18.80;99.90;;;;;;5093307;27;20053;-69
2023/06/20 05:57:05;;;;;;;10.68;8.63;;;18.90;99.90;;;;;;5092278;27;20048;-72
2023/06/20 05:59:38;;;;;;;12.20;9.20;;;18.90;99.90;;;;;;5081695;27;20047;-80
2023/06/20 06:02:05;;;;;;;12.82;8.70;;;19.00;99.90;;;;;;5073481;27;21007;-73
2023/06/20 06:04:44;;;;;;;12.57;8.88;;;19.00;99.90;;;;;;5089737;27;20048;-73
2023/06/20 06:07:11;;;;;;;12.25;9.13;;;19.00;99.90;;;;;;5072857;27;20394;-74
2023/06/20 06:09:45;;;;;;;13.43;9.20;;;19.10;99.90;;;;;;5062788;27;20093;-74
2023/06/20 06:12:10;;;;;;;11.38;8.75;;;19.10;99.90;;;;;;5074939;27;20043;-74
2023/06/20 06:14:36;;;;;;;12.63;8.43;;;19.20;99.90;;;;;;5073137;27;20866;-74
2023/06/20 06:17:02;;;;;;;11.27;8.68;;;19.20;99.90;;;;;;5069815;27;20469;-75
2023/06/20 06:19:35;;;;;;;13.32;9.35;;;19.30;99.90;;;;;;5075183;27;20467;-75
2023/06/20 06:22:03;;;;;;;10.93;8.65;;;19.40;99.90;;;;;;5061549;27;20123;-75
2023/06/20 06:24:32;;;;;;;12.70;9.13;;;19.40;99.90;;;;;;5060716;27;20117;-77
2023/06/20 06:27:00;;;;;;;12.15;8.63;;;19.50;99.90;;;;;;5091060;27;20035;-74
2023/06/20 06:29:26;;;;;;;12.27;9.05;;;19.70;99.90;;;;;;5083680;27;20269;-74
2023/06/20 06:32:02;;;;;;;10.95;9.32;;;19.70;99.90;;;;;;5076111;27;20473;-76
2023/06/20 06:34:36;;;;;;;11.88;8.52;;;19.90;99.90;;;;;;5084986;27;20528;-73
2023/06/20 06:37:09;;;;;;;12.18;9.45;;;19.50;99.90;;;;;;5061428;27;20046;-74
2023/06/20 06:39:36;;;;;;;9.73;8.13;;;20.30;99.90;;;;;;5073614;27;20043;-75
2023/06/20 06:42:02;;;;;;;10.27;8.50;;;20.60;99.90;;;;;;5053779;27;21437;-73
2023/06/20 06:44:28;;;;;;;10.75;8.35;;;20.80;99.90;;;;;;5072364;28;20051;-73
2023/06/20 06:46:55;;;;;;;11.07;7.68;;;21.00;99.90;;;;;;5090498;27;20493;-72
2023/06/20 06:49:23;;;;;;;10.38;8.02;;;21.10;99.90;;;;;;5084474;27;20047;-71
2023/06/20 06:51:49;;;;;;;10.25;8.30;;;21.30;99.90;;;;;;5073436;27;20605;-74
2023/06/20 06:54:16;;;;;;;9.65;7.80;;;21.50;99.90;;;;;;5072394;27;20411;-72
2023/06/20 06:56:42;;;;;;;10.88;7.72;;;21.60;99.90;;;;;;5074704;27;20538;-71
2023/06/20 06:59:08;;;;;;;10.43;8.02;;;21.70;99.90;;;;;;5089739;27;20134;-72
2023/06/20 07:01:33;;;;;;;8.73;6.85;;;21.90;99.90;;;;;;5091180;27;20047;-71
2023/06/20 07:03:59;;;;;;;9.02;7.15;;;22.10;99.90;;;;;;5092207;27;20502;-73
2023/06/20 07:06:30;;;;;;;10.85;7.85;;;21.90;99.90;;;;;;5063815;27;20071;-72
2023/06/20 07:08:57;;;;;;;10.93;8.30;;;22.50;99.90;;;;;;5075835;27;20051;-73
2023/06/20 07:11:25;;;;;;;10.13;8.27;;;22.70;99.90;;;;;;5038448;27;21100;-74
2023/06/20 07:13:51;;;;;;;11.68;8.35;;;22.60;99.90;;;;;;5050748;27;20046;-76
2023/06/20 07:16:17;;;;;;;11.40;8.75;;;22.70;99.90;;;;;;5050309;27;20043;-73
2023/06/20 07:18:43;;;;;;;9.57;7.93;;;22.60;99.90;;;;;;5054910;27;20042;-74
2023/06/20 07:21:09;;;;;;;9.02;8.13;;;22.60;99.90;;;;;;5070677;27;20059;-75
2023/06/20 07:23:37;;;;;;;10.70;8.20;;;22.40;99.90;;;;;;5060750;27;20360;-73
2023/06/20 07:26:04;;;;;;;12.75;8.02;;;22.60;99.90;;;;;;5072269;27;20079;-73
2023/06/20 07:28:30;;;;;;;10.90;8.63;;;22.70;99.90;;;;;;5093467;27;20039;-72
2023/06/20 07:30:56;;;;;;;9.98;7.97;;;22.80;99.90;;;;;;5093479;27;20156;-75
2023/06/20 07:33:22;;;;;;;10.80;8.25;;;22.70;99.90;;;;;;5085325;27;20059;-71
2023/06/20 07:35:49;;;;;;;11.98;8.10;;;22.80;99.90;;;;;;5066971;27;20047;-72
2023/06/20 07:38:15;;;;;;;11.23;8.55;;;22.90;99.90;;;;;;5072126;27;20081;-72
2023/06/20 07:40:41;;;;;;;9.95;8.43;;;22.90;99.90;;;;;;5054798;27;20052;-72
2023/06/20 07:43:07;;;;;;;11.13;8.95;;;22.90;99.90;;;;;;5061210;27;20047;-74
2023/06/20 07:45:39;;;;;;;11.68;9.02;;;23.00;99.90;;;;;;5092390;27;20529;-73
2023/06/20 07:48:05;;;;;;;12.90;9.13;;;23.10;99.90;;;;;;5090120;27;20122;-73
2023/06/20 07:50:31;;;;;;;11.10;8.32;;;23.30;99.90;;;;;;5067966;28;20054;-76
2023/06/20 07:52:56;;;;;;;10.27;8.85;;;23.50;99.90;;;;;;5073098;27;20166;-73
2023/06/20 07:55:22;;;;;;;9.88;8.20;;;23.70;99.90;;;;;;5067901;27;20374;-73
2023/06/20 07:57:48;;;;;;;10.30;8.65;;;23.90;99.90;;;;;;5088109;27;20077;-73
2023/06/20 08:00:14;;;;;;;12.10;8.63;;;24.00;99.90;;;;;;5059575;28;20051;-72
2023/06/20 08:02:40;;;;;;;10.90;8.82;;;24.20;99.90;;;;;;5029764;27;20047;-80
2023/06/20 08:05:08;;;;;;;9.23;8.27;;;24.40;99.90;;;;;;5086412;27;20912;-73
2023/06/20 08:07:35;;;;;;;10.23;9.13;;;24.70;99.90;;;;;;5088015;28;20047;-71
2023/06/20 08:10:02;;;;;;;11.95;9.40;;;24.90;99.90;;;;;;5087949;27;20047;-73
2023/06/20 08:12:28;;;;;;;9.55;8.40;;;25.10;99.90;;;;;;5081224;27;20047;-74
2023/06/20 08:14:54;;;;;;;11.15;8.77;;;25.30;99.90;;;;;;5088731;28;20051;-73
2023/06/20 08:17:19;;;;;;;10.43;7.93;;;25.50;99.90;;;;;;5089667;28;20043;-71
2023/06/20 08:19:45;;;;;;;11.35;8.27;;;25.80;99.90;;;;;;5091287;28;20382;-71
2023/06/20 08:22:11;;;;;;;8.98;8.05;;;25.80;99.90;;;;;;5069946;28;20086;-75
2023/06/20 08:24:37;;;;;;;8.93;7.70;;;25.90;99.90;;;;;;5061786;28;20044;-75
2023/06/20 08:27:04;;;;;;;8.55;7.65;;;26.10;99.90;;;;;;5092692;28;20471;-74
2023/06/20 08:29:30;;;;;;;10.48;7.93;;;26.30;99.90;;;;;;5082238;28;20069;-74
2023/06/20 08:31:55;;;;;;;10.00;8.15;;;26.40;99.90;;;;;;5078418;28;20050;-74
2023/06/20 08:34:21;;;;;;;10.75;8.48;;;26.50;99.90;;;;;;5082156;28;20593;-74
2023/06/20 08:36:47;;;;;;;9.80;8.70;;;26.40;99.90;;;;;;5067015;28;20043;-75
2023/06/20 08:39:13;;;;;;;8.20;7.25;;;26.50;99.90;;;;;;5100118;28;20036;-76
2023/06/20 08:41:38;;;;;;;8.82;7.55;;;26.50;99.90;;;;;;5080563;28;20437;-76
2023/06/20 08:44:04;;;;;;;11.30;8.18;;;26.50;99.90;;;;;;5083068;27;20114;-74
2023/06/20 08:46:31;;;;;;;8.32;6.90;;;26.40;99.90;;;;;;5101029;27;20553;-75
2023/06/20 08:48:57;;;;;;;8.93;7.43;;;26.50;99.90;;;;;;5103490;27;20576;-74
2023/06/20 08:51:26;;;;;;;19.65;8.63;;;26.60;99.90;;;;;;5103680;27;20074;-73
2023/06/20 08:53:54;;;;;;;12.55;8.40;;;26.60;99.90;;;;;;5100646;27;20104;-74
2023/06/20 08:56:20;;;;;;;10.80;8.13;;;26.60;99.90;;;;;;5101696;27;20314;-74
2023/06/20 08:58:46;;;;;;;9.40;8.40;;;26.70;99.90;;;;;;5101825;27;20274;-75
2023/06/20 09:01:12;;;;;;;12.02;8.60;;;26.80;99.90;;;;;;5104789;27;20122;-74
2023/06/20 09:03:38;;;;;;;11.25;8.35;;;26.90;99.90;;;;;;5085639;27;20513;-74
2023/06/20 09:06:05;;;;;;;10.40;8.50;;;26.90;99.90;;;;;;5086461;27;20051;-75
2023/06/20 09:08:39;;;;;;;18.60;9.52;;;26.90;99.90;;;;;;5103816;27;20048;-74
2023/06/20 09:11:09;;;;;;;32.05;11.13;;;26.90;99.90;;;;;;5101145;27;20051;-74
2023/06/20 09:13:36;;;;;;;11.02;8.80;;;26.90;99.90;;;;;;5099406;27;20062;-76
2023/06/20 09:16:07;;;;;;;10.90;7.85;;;27.00;99.90;;;;;;5085078;27;20055;-74
2023/06/20 09:18:34;;;;;;;10.40;8.35;;;27.20;99.90;;;;;;5103119;27;20055;-73
2023/06/20 09:21:03;;;;;;;10.88;8.60;;;27.40;99.90;;;;;;5102726;27;20051;-74
2023/06/20 09:23:33;;;;;;;12.25;8.20;;;27.40;99.90;;;;;;5068890;27;20589;-74
2023/06/20 09:26:18;;;;;;;10.93;8.07;;;27.60;99.90;;;;;;5100928;27;20051;-73
2023/06/20 09:28:46;;;;;;;10.70;9.38;;;27.80;99.60;;;;;;5103041;27;20080;-74
2023/06/20 09:31:14;;;;;;;10.63;8.65;;;28.10;99.70;;;;;;5103151;27;20590;-74
2023/06/20 09:33:39;;;;;;;10.35;9.35;;;28.20;99.50;;;;;;5083830;27;20544;-74
2023/06/20 09:36:16;;;;;;;10.52;8.68;;;28.20;99.10;;;;;;5120193;27;20047;-75
2023/06/20 09:38:43;;;;;;;11.05;8.73;;;28.50;99.00;;;;;;5102536;27;20047;-74
2023/06/20 09:41:13;;;;;;;11.43;9.30;;;28.60;98.70;;;;;;5103332;27;20063;-75
2023/06/20 09:43:39;;;;;;;9.65;8.65;;;28.70;98.40;;;;;;5084178;27;20047;-74
2023/06/20 09:46:04;;;;;;;10.65;9.55;;;29.00;98.30;;;;;;5100663;27;20104;-74
2023/06/20 09:48:32;;;;;;;10.63;8.88;;;29.10;97.80;;;;;;5068123;27;20078;-74
2023/06/20 09:51:00;;;;;;;10.40;9.40;;;29.10;97.50;;;;;;5052651;27;20051;-74
2023/06/20 09:53:58;;;;;;;12.80;9.57;;;29.10;97.60;;;;;;5101376;27;20054;-73
2023/06/20 09:56:27;;;;;;;10.57;9.48;;;29.30;96.80;;;;;;5102656;27;20082;-74
2023/06/20 09:58:57;;;;;;;12.40;9.88;;;29.40;97.20;;;;;;5117586;27;20055;-74
2023/06/20 10:01:26;;;;;;;12.35;9.70;;;29.40;96.90;;;;;;5102444;27;20087;-73
2023/06/20 10:03:54;;;;;;;11.45;10.23;;;29.50;96.50;;;;;;5101887;27;20051;-74
2023/06/20 10:06:20;;;;;;;10.80;9.40;;;29.60;96.40;;;;;;5101635;27;20131;-74
2023/06/20 10:08:47;;;;;;;11.57;8.48;;;29.70;96.40;;;;;;5097432;27;20051;-74
2023/06/20 10:11:13;;;;;;;10.82;9.73;;;30.00;96.30;;;;;;5082870;27;20120;-74
2023/06/20 10:13:41;;;;;;;11.32;9.82;;;30.20;95.90;;;;;;5101940;27;20090;-74
2023/06/20 10:16:07;;;;;;;10.43;8.80;;;30.20;95.60;;;;;;5119990;27;20057;-74
2023/06/20 10:18:33;;;;;;;10.00;8.80;;;30.40;95.60;;;;;;5080842;27;20051;-74
2023/06/20 10:21:02;;;;;;;10.00;8.68;;;30.60;95.40;;;;;;5068496;27;20073;-72
2023/06/20 10:23:34;;;;;;;14.57;9.43;;;30.90;94.90;;;;;;5101823;27;20059;-73
2023/06/20 10:26:03;;;;;;;11.23;8.63;;;31.00;94.50;;;;;;5101577;27;20087;-74
2023/06/20 10:28:29;;;;;;;9.18;8.27;;;31.10;94.30;;;;;;5097891;27;20043;-73
2023/06/20 10:31:01;;;;;;;8.68;7.75;;;31.20;94.10;;;;;;5117893;27;20082;-74
2023/06/20 10:33:31;;;;;;;8.45;7.65;;;31.30;93.80;;;;;;5085516;28;20051;-73
2023/06/20 10:36:00;;;;;;;9.50;7.45;;;31.50;93.60;;;;;;5101816;27;20450;-74
2023/06/20 10:38:28;;;;;;;11.63;7.15;;;31.40;93.20;;;;;;5102599;27;20062;-74
2023/06/20 10:41:07;;;;;;;8.25;7.20;;;31.50;93.10;;;;;;5088155;27;20046;-74
2023/06/20 10:44:08;;;;;;;9.23;7.70;;;31.60;92.80;;;;;;5081892;27;20541;-72
2023/06/20 10:46:37;;;;;;;9.18;7.88;;;31.90;92.60;;;;;;5053696;27;20051;-73
2023/06/20 10:49:04;;;;;;;10.18;8.35;;;32.10;92.30;;;;;;5104073;27;20364;-85
2023/06/20 10:51:30;;;;;;;7.43;6.72;;;32.30;92.20;;;;;;5070567;27;20498;-88
2023/06/20 10:54:09;;;;;;;10.55;7.57;;;32.50;92.20;;;;;;5090044;27;20036;-80
2023/06/20 10:56:35;;;;;;;11.38;6.78;;;32.60;91.30;;;;;;5106116;27;20086;-82
2023/06/20 10:59:21;;;;;;;7.10;6.40;;;32.50;91.50;;;;;;5074425;27;20042;-81
2023/06/20 11:01:47;;;;;;;7.45;6.68;;;32.50;90.70;;;;;;5070650;27;20486;-81
2023/06/20 11:04:15;;;;;;;8.50;6.03;;;32.60;90.90;;;;;;5085677;28;20044;-78
2023/06/20 11:06:42;;;;;;;8.57;6.97;;;32.80;91.10;;;;;;5085122;27;20050;-80
2023/06/20 11:09:18;;;;;;;9.05;6.03;;;33.10;90.60;;;;;;5072866;27;20140;-85
2023/06/20 11:11:44;;;;;;;6.85;6.15;;;33.20;90.40;;;;;;5044307;27;20043;-82
2023/06/20 11:14:14;;;;;;;8.38;6.85;;;33.40;90.30;;;;;;5092244;27;20085;-83
2023/06/20 11:16:41;;;;;;;6.40;5.80;;;33.30;89.60;;;;;;5091294;27;20043;-85
2023/06/20 11:19:07;;;;;;;7.65;6.38;;;33.60;89.90;;;;;;5063888;27;20524;-74
2023/06/20 11:21:34;;;;;;;8.75;6.03;;;33.60;89.10;;;;;;5111295;27;20065;-73
2023/06/20 11:24:04;;;;;;;7.60;5.30;;;33.70;88.50;;;;;;5090909;27;20100;-74
2023/06/20 11:26:31;;;;;;;6.93;5.35;;;33.80;88.10;;;;;;5074344;27;20107;-74
2023/06/20 11:29:01;;;;;;;7.75;5.50;;;33.60;87.20;;;;;;5093075;27;20122;-72
2023/06/20 11:31:27;;;;;;;8.15;5.90;;;33.40;86.90;;;;;;5089342;27;20043;-73
2023/06/20 11:34:06;;;;;;;8.00;6.10;;;33.50;87.40;;;;;;5089674;28;20123;-75
2023/06/20 11:36:33;;;;;;;9.15;5.80;;;33.80;88.10;;;;;;5071196;27;20642;-75
2023/06/20 11:39:00;;;;;;;7.53;5.53;;;33.90;86.80;;;;;;5089070;27;20082;-74
2023/06/20 11:41:31;;;;;;;7.25;6.55;;;33.90;86.40;;;;;;5096020;27;20090;-73
2023/06/20 11:43:57;;;;;;;7.18;4.50;;;33.90;86.10;;;;;;5087874;28;21389;-76
2023/06/20 11:46:23;;;;;;;5.63;5.00;;;33.80;85.30;;;;;;5067630;28;20107;-74
2023/06/20 11:48:53;;;;;;;7.40;4.97;;;33.70;85.20;;;;;;5073984;27;20355;-74
2023/06/20 11:51:24;;;;;;;6.35;5.60;;;33.80;85.80;;;;;;5088515;27;20107;-74
2023/06/20 11:54:12;;;;;;;6.93;5.70;;;33.80;85.20;;;;;;5089852;27;20533;-73
2023/06/20 11:56:38;;;;;;;6.75;5.35;;;33.70;84.70;;;;;;5086050;27;20437;-73
2023/06/20 11:59:04;;;;;;;6.30;5.20;;;33.70;84.80;;;;;;5085874;27;20428;-74
2023/06/20 12:01:32;;;;;;;6.10;5.50;;;33.70;83.90;;;;;;5108428;27;20104;-74
2023/06/20 12:04:06;;;;;;;5.43;4.78;;;33.60;83.50;;;;;;5090387;28;20051;-73
2023/06/20 12:06:48;;;;;;;6.82;4.93;;;33.70;83.40;;;;;;5078226;28;21605;-76
2023/06/20 12:09:16;;;;;;;6.13;4.78;;;33.60;83.10;;;;;;5073502;27;20074;-75
2023/06/20 12:11:55;;;;;;;7.70;4.80;;;33.70;82.60;;;;;;5090393;28;20066;-72
2023/06/20 12:14:23;;;;;;;6.35;4.95;;;33.60;82.10;;;;;;5060472;28;20064;-74
2023/06/20 12:16:50;;;;;;;8.02;4.60;;;33.60;82.80;;;;;;5089630;28;20063;-73
2023/06/20 12:19:19;;;;;;;5.15;4.65;;;33.80;83.00;;;;;;5077366;28;20088;-72
2023/06/20 12:21:45;;;;;;;6.65;5.00;;;33.80;81.90;;;;;;5088121;28;20050;-75
2023/06/20 12:24:11;;;;;;;6.80;5.20;;;33.80;81.60;;;;;;5091973;28;20074;-72
2023/06/20 12:26:38;;;;;;;6.55;4.60;;;33.80;81.50;;;;;;5065489;28;20127;-73
2023/06/20 12:29:04;;;;;;;6.28;4.88;;;33.60;81.20;;;;;;5089647;28;20416;-74
2023/06/20 12:31:31;;;;;;;7.88;5.35;;;33.60;80.70;;;;;;5092647;28;20112;-74
2023/06/20 12:33:57;;;;;;;5.80;5.03;;;33.50;80.60;;;;;;5097371;28;20092;-74
2023/06/20 12:36:23;;;;;;;5.63;4.38;;;33.60;81.10;;;;;;5064575;28;20478;-74
2023/06/20 12:38:49;;;;;;;6.80;4.85;;;33.70;80.70;;;;;;5097961;28;20058;-75
2023/06/20 12:41:16;;;;;;;7.25;5.40;;;34.00;80.00;;;;;;5094457;28;20720;-74
2023/06/20 12:43:41;;;;;;;8.48;5.45;;;34.20;80.30;;;;;;5059856;28;20043;-75
2023/06/20 12:46:08;;;;;;;7.15;5.10;;;34.40;79.90;;;;;;5087034;28;20066;-75